createdAt,value
2019-05-13T00:00:13.987Z,47.37
2019-05-13T00:02:44.168Z,55.73
2019-05-13T00:05:15.210Z,66.53
2019-05-13T00:07:45.528Z,69.27
2019-05-13T00:10:16.474Z,51.20
2019-05-13T00:12:46.996Z,53.10
2019-05-13T00:15:17.318Z,57.23
2019-05-13T00:17:47.852Z,53.27
2019-05-13T00:20:18.790Z,37.27
2019-05-13T00:22:49.318Z,33.40
2019-05-13T00:25:20.257Z,27.87
2019-05-13T00:27:50.788Z,41.37
2019-05-13T00:30:34.318Z,37.37
2019-05-13T00:33:04.946Z,32.10
2019-05-13T00:35:35.478Z,45.93
2019-05-13T00:38:05.797Z,22.53
2019-05-13T00:40:36.330Z,33.97
2019-05-13T00:43:06.859Z,24.47
2019-05-13T00:45:37.491Z,21.07
2019-05-13T00:48:08.122Z,20.50
2019-05-13T00:50:38.649Z,15.93
2019-05-13T00:53:09.379Z,14.13
2019-05-13T00:55:39.908Z,16.20
2019-05-13T00:58:14.021Z,25.33
2019-05-13T01:00:45.272Z,13.37
2019-05-13T01:03:15.797Z,20.10
2019-05-13T01:05:46.329Z,23.43
2019-05-13T01:08:17.881Z,23.53
2019-05-13T01:10:48.615Z,22.43
2019-05-13T01:13:19.144Z,45.57
2019-05-13T01:15:49.673Z,24.90
2019-05-13T01:18:20.196Z,19.60
2019-05-13T01:20:50.730Z,12.90
2019-05-13T01:23:21.258Z,14.83
2019-05-13T01:25:54.255Z,17.73
2019-05-13T01:28:23.930Z,23.83
2019-05-13T01:30:55.094Z,14.70
2019-05-13T01:33:25.421Z,10.57
2019-05-13T01:35:56.155Z,17.73
2019-05-13T01:38:26.677Z,7.73
2019-05-13T01:40:57.002Z,19.03
2019-05-13T01:43:27.326Z,17.83
2019-05-13T01:45:57.649Z,16.30
2019-05-13T01:48:28.176Z,18.77
2019-05-13T01:50:58.704Z,11.37
2019-05-13T01:53:29.238Z,12.70
2019-05-13T01:55:59.967Z,11.23
2019-05-13T01:58:30.290Z,7.17
2019-05-13T02:01:00.621Z,8.13
2019-05-13T02:03:33.657Z,11.17
2019-05-13T02:06:03.795Z,3.73
2019-05-13T02:08:35.277Z,4.10
2019-05-13T02:11:06.007Z,6.17
2019-05-13T02:13:36.335Z,5.73
2019-05-13T02:16:06.652Z,5.20
2019-05-13T02:18:37.180Z,5.57
2019-05-13T02:21:07.714Z,11.00
2019-05-13T02:23:38.249Z,3.23
2019-05-13T02:26:08.565Z,9.83
2019-05-13T02:28:39.509Z,6.10
2019-05-13T02:31:13.736Z,4.93
2019-05-13T02:33:42.356Z,4.80
2019-05-13T02:36:13.616Z,4.53
2019-05-13T02:38:44.695Z,5.23
2019-05-13T02:41:15.221Z,3.30
2019-05-13T02:43:45.642Z,3.90
2019-05-13T02:46:16.274Z,5.13
2019-05-13T02:48:46.600Z,6.50
2019-05-13T02:51:17.129Z,3.83
2019-05-13T02:53:47.658Z,4.10
2019-05-13T02:56:18.189Z,7.10
2019-05-13T02:58:48.715Z,2.80
2019-05-13T03:01:22.075Z,4.60
2019-05-13T03:03:52.833Z,5.63
2019-05-13T03:06:23.166Z,3.20
2019-05-13T03:08:54.657Z,5.23
2019-05-13T03:11:25.447Z,2.50
2019-05-13T03:13:55.981Z,2.63
2019-05-13T03:16:32.543Z,5.47
2019-05-13T03:19:03.006Z,4.37
2019-05-13T03:21:33.715Z,9.53
2019-05-13T03:24:04.248Z,4.07
2019-05-13T03:26:34.772Z,9.73
2019-05-13T03:29:05.297Z,9.03
2019-05-13T03:31:36.376Z,5.30
2019-05-13T03:34:07.630Z,5.87
2019-05-13T03:36:44.915Z,2.73
2019-05-13T03:39:16.107Z,6.83
2019-05-13T03:41:46.336Z,3.57
2019-05-13T03:44:23.202Z,4.93
2019-05-13T03:46:54.147Z,5.43
2019-05-13T03:49:27.443Z,8.40
2019-05-13T03:51:58.280Z,4.63
2019-05-13T03:54:32.407Z,7.10
2019-05-13T03:57:03.579Z,3.30
2019-05-13T03:59:33.976Z,54.60
2019-05-13T04:02:05.310Z,6.53
2019-05-13T04:04:35.839Z,5.47
2019-05-13T04:07:06.363Z,6.37
2019-05-13T04:09:37.109Z,6.27
2019-05-13T04:12:07.833Z,7.33
2019-05-13T04:14:38.362Z,7.57
2019-05-13T04:17:08.686Z,4.27
2019-05-13T04:19:42.142Z,4.43
2019-05-13T04:22:12.851Z,7.00
2019-05-13T04:24:43.750Z,3.87
2019-05-13T04:27:14.908Z,5.27
2019-05-13T04:29:45.428Z,4.77
2019-05-13T04:32:28.886Z,4.80
2019-05-13T04:35:03.382Z,3.13
2019-05-13T04:37:32.851Z,2.20
2019-05-13T04:40:05.558Z,4.03
2019-05-13T04:42:36.090Z,4.50
2019-05-13T04:45:07.023Z,6.33
2019-05-13T04:47:37.559Z,3.93
2019-05-13T04:50:09.212Z,7.30
2019-05-13T04:52:42.270Z,5.53
2019-05-13T04:55:13.311Z,4.90
2019-05-13T04:57:44.786Z,4.40
2019-05-13T05:00:17.055Z,5.57
2019-05-13T05:02:56.506Z,3.30
2019-05-13T05:05:42.144Z,6.57
2019-05-13T05:08:32.820Z,7.13
2019-05-13T05:11:22.969Z,4.03
2019-05-13T05:14:13.160Z,5.20
2019-05-13T05:16:55.561Z,7.03
2019-05-13T05:19:47.444Z,11.07
2019-05-13T05:22:35.538Z,5.60
2019-05-13T05:25:14.544Z,8.43
2019-05-13T05:28:12.020Z,6.70
2019-05-13T05:31:02.352Z,7.53
2019-05-13T05:33:56.586Z,3.23
2019-05-13T05:36:48.334Z,4.83
2019-05-13T05:39:24.484Z,3.40
2019-05-13T05:41:57.054Z,6.20
2019-05-13T05:44:32.710Z,7.10
2019-05-13T05:47:04.671Z,2.57
2019-05-13T05:49:36.742Z,4.63
2019-05-13T05:52:08.704Z,3.83
2019-05-13T05:54:42.181Z,4.67
2019-05-13T05:57:13.241Z,3.43
2019-05-13T05:59:44.997Z,2.80
2019-05-13T06:02:19.418Z,2.40
2019-05-13T06:04:52.144Z,4.00
2019-05-13T06:07:23.339Z,3.87
2019-05-13T06:09:53.865Z,2.80
2019-05-13T06:12:24.728Z,3.45
2019-05-13T06:14:55.330Z,4.10
2019-05-13T06:17:25.858Z,4.95
2019-05-13T06:19:56.802Z,5.20
2019-05-13T06:22:27.330Z,6.60
2019-05-13T06:24:58.065Z,3.87
2019-05-13T06:27:28.592Z,3.00
2019-05-13T06:30:01.929Z,5.10
2019-05-13T06:32:31.834Z,2.67
2019-05-13T06:35:02.599Z,2.92
2019-05-13T06:37:33.164Z,5.53
2019-05-13T06:40:03.893Z,49.07
2019-05-13T06:42:34.018Z,4.08
2019-05-13T06:45:09.252Z,9.18
2019-05-13T06:47:41.284Z,4.57
2019-05-13T06:50:11.823Z,4.65
2019-05-13T06:52:42.651Z,3.35
2019-05-13T06:55:14.342Z,3.50
2019-05-13T06:57:44.393Z,9.20
2019-05-13T07:00:14.388Z,3.60
2019-05-13T07:02:44.436Z,2.27
2019-05-13T07:05:14.583Z,6.53
2019-05-13T07:07:44.636Z,2.67
2019-05-13T07:10:14.637Z,4.67
2019-05-13T07:12:44.646Z,2.72
2019-05-13T07:15:14.767Z,2.40
2019-05-13T07:17:44.846Z,6.55
2019-05-13T07:20:15.271Z,5.72
2019-05-13T07:22:45.532Z,4.17
2019-05-13T07:25:15.548Z,2.87
2019-05-13T07:27:45.607Z,5.70
2019-05-13T07:30:18.571Z,2.12
2019-05-13T07:32:48.670Z,3.37
2019-05-13T07:35:18.698Z,6.03
2019-05-13T07:37:51.639Z,3.55
2019-05-13T07:40:22.252Z,3.05
2019-05-13T07:42:52.842Z,4.47
2019-05-13T07:45:23.175Z,2.00
2019-05-13T07:47:54.109Z,1.60
2019-05-13T07:50:24.638Z,2.15
2019-05-13T07:52:55.375Z,3.37
2019-05-13T07:55:25.897Z,3.15
2019-05-13T07:57:56.423Z,7.62
2019-05-13T08:00:26.753Z,5.40
2019-05-13T08:02:57.278Z,3.87
2019-05-13T08:05:27.598Z,10.08
2019-05-13T08:07:58.126Z,4.22
2019-05-13T08:10:28.664Z,4.70
2019-05-13T08:12:59.183Z,2.92
2019-05-13T08:15:31.588Z,6.50
2019-05-13T08:18:02.052Z,3.62
2019-05-13T08:20:32.907Z,2.27
2019-05-13T08:23:03.553Z,2.35
2019-05-13T08:25:34.085Z,2.27
2019-05-13T08:28:04.813Z,2.90
2019-05-13T08:30:35.347Z,4.78
2019-05-13T08:33:05.873Z,2.85
2019-05-13T08:35:36.199Z,4.08
2019-05-13T08:38:06.726Z,3.42
2019-05-13T08:40:37.664Z,13.90
2019-05-13T08:43:07.983Z,2.35
2019-05-13T08:45:38.512Z,7.40
2019-05-13T08:48:08.835Z,1.70
2019-05-13T08:50:41.637Z,2.60
2019-05-13T08:53:12.127Z,2.72
2019-05-13T08:55:43.176Z,4.50
2019-05-13T08:58:14.027Z,2.60
2019-05-13T09:00:53.063Z,2.45
2019-05-13T09:03:24.710Z,5.00
2019-05-13T09:05:55.648Z,4.03
2019-05-13T09:08:26.480Z,2.67
2019-05-13T09:10:57.280Z,2.20
2019-05-13T09:13:28.050Z,2.33
2019-05-13T09:15:58.581Z,5.28
2019-05-13T09:18:31.286Z,1.82
2019-05-13T09:21:02.530Z,2.25
2019-05-13T09:23:33.238Z,2.65
2019-05-13T09:26:03.564Z,1.75
2019-05-13T09:28:34.086Z,1.42
2019-05-13T09:31:04.620Z,9.65
2019-05-13T09:33:35.149Z,4.42
2019-05-13T09:36:06.087Z,4.17
2019-05-13T09:38:36.408Z,2.22
2019-05-13T09:41:06.938Z,1.47
2019-05-13T09:43:37.467Z,1.70
2019-05-13T09:46:07.786Z,3.02
2019-05-13T09:48:38.109Z,2.55
2019-05-13T09:51:08.644Z,2.35
2019-05-13T09:53:41.556Z,7.00
2019-05-13T09:56:11.854Z,4.17
2019-05-13T09:58:42.686Z,2.40
2019-05-13T10:01:13.214Z,2.58
2019-05-13T10:03:53.775Z,9.75
2019-05-13T10:06:16.315Z,4.92
2019-05-13T10:08:46.639Z,10.50
2019-05-13T10:11:17.172Z,5.33
2019-05-13T10:13:47.697Z,3.20
2019-05-13T10:16:18.229Z,3.17
2019-05-13T10:18:48.758Z,7.20
2019-05-13T10:21:21.651Z,12.58
2019-05-13T10:23:51.653Z,4.37
2019-05-13T10:26:22.876Z,3.95
2019-05-13T10:28:54.144Z,3.47
2019-05-13T10:31:24.469Z,3.12
2019-05-13T10:33:56.021Z,2.72
2019-05-13T10:36:26.963Z,6.05
2019-05-13T10:38:58.310Z,8.18
2019-05-13T10:41:29.039Z,6.30
2019-05-13T10:44:02.716Z,2.98
2019-05-13T10:46:32.106Z,10.88
2019-05-13T10:49:02.792Z,5.28
2019-05-13T10:51:33.407Z,2.85
2019-05-13T10:54:03.940Z,6.17
2019-05-13T10:56:35.297Z,2.83
2019-05-13T10:59:05.631Z,5.03
2019-05-13T11:01:36.351Z,4.05
2019-05-13T11:04:13.360Z,3.20
2019-05-13T11:06:42.112Z,2.33
2019-05-13T11:09:13.255Z,18.45
2019-05-13T11:11:43.988Z,4.72
2019-05-13T11:14:15.691Z,8.15
2019-05-13T11:16:46.474Z,6.05
2019-05-13T11:19:17.403Z,5.67
2019-05-13T11:21:50.823Z,4.70
2019-05-13T11:24:22.606Z,10.25
2019-05-13T11:26:53.098Z,3.45
2019-05-13T11:29:25.488Z,4.83
2019-05-13T11:31:56.408Z,3.33
2019-05-13T11:34:27.342Z,4.50
2019-05-13T11:36:58.089Z,5.30
2019-05-13T11:39:28.607Z,12.65
2019-05-13T11:42:02.031Z,8.08
2019-05-13T11:44:32.189Z,3.72
2019-05-13T11:47:03.178Z,5.25
2019-05-13T11:49:34.427Z,4.25
2019-05-13T11:52:04.728Z,5.33
2019-05-13T11:54:35.474Z,3.77
2019-05-13T11:57:06.807Z,5.12
2019-05-13T11:59:37.364Z,4.58
2019-05-13T12:02:08.281Z,5.33
2019-05-13T12:04:43.004Z,5.70
2019-05-13T12:07:13.332Z,5.45
2019-05-13T12:09:43.848Z,19.62
2019-05-13T12:12:14.903Z,7.60
2019-05-13T12:15:17.733Z,8.28
2019-05-13T12:17:17.595Z,8.23
2019-05-13T12:19:48.120Z,10.15
2019-05-13T12:22:22.722Z,7.92
2019-05-13T12:24:51.555Z,7.45
2019-05-13T12:27:22.990Z,6.30
2019-05-13T12:29:53.326Z,6.78
2019-05-13T12:32:23.844Z,6.35
2019-05-13T12:34:54.364Z,8.48
2019-05-13T12:37:25.096Z,6.58
2019-05-13T12:39:55.629Z,5.05
2019-05-13T12:42:26.153Z,10.38
2019-05-13T12:45:08.292Z,9.53
2019-05-13T12:47:28.647Z,16.60
2019-05-13T12:50:02.747Z,10.65
2019-05-13T12:52:32.549Z,6.50
2019-05-13T12:55:03.253Z,4.60
2019-05-13T12:57:33.615Z,7.10
2019-05-13T13:00:05.322Z,8.23
2019-05-13T13:02:35.366Z,15.10
2019-05-13T13:05:10.644Z,11.28
2019-05-13T13:07:41.307Z,13.93
2019-05-13T13:10:14.262Z,12.85
2019-05-13T13:12:42.063Z,17.25
2019-05-13T13:15:36.079Z,10.10
2019-05-13T13:17:44.344Z,6.50
2019-05-13T13:20:15.761Z,6.35
2019-05-13T13:22:45.881Z,7.17
2019-05-13T13:25:16.587Z,8.63
2019-05-13T13:28:09.064Z,8.55
2019-05-13T13:30:19.719Z,9.80
2019-05-13T13:32:54.970Z,9.55
2019-05-13T13:35:23.230Z,10.08
2019-05-13T13:37:53.527Z,7.95
2019-05-13T13:40:29.036Z,6.05
2019-05-13T13:42:56.251Z,5.08
2019-05-13T13:45:26.980Z,14.73
2019-05-13T13:48:03.630Z,9.90
2019-05-13T13:50:33.269Z,10.83
2019-05-13T13:53:01.249Z,12.98
2019-05-13T13:55:32.218Z,10.43
2019-05-13T13:58:03.104Z,7.15
2019-05-13T14:00:45.155Z,8.83
2019-05-13T14:03:06.538Z,6.50
2019-05-13T14:05:37.562Z,11.35
2019-05-13T14:08:08.295Z,12.58
2019-05-13T14:10:38.615Z,10.20
2019-05-13T14:13:09.352Z,10.28
2019-05-13T14:15:41.700Z,10.23
2019-05-13T14:18:11.620Z,11.43
2019-05-13T14:20:42.845Z,8.07
2019-05-13T14:23:13.926Z,13.83
2019-05-13T14:25:44.451Z,9.53
2019-05-13T14:28:17.614Z,7.43
2019-05-13T14:30:47.143Z,12.97
2019-05-13T14:33:17.891Z,8.37
2019-05-13T14:35:48.829Z,11.03
2019-05-13T14:38:21.882Z,10.45
2019-05-13T14:40:52.187Z,7.30
2019-05-13T14:43:23.078Z,10.10
2019-05-13T14:45:53.699Z,11.75
2019-05-13T14:48:24.739Z,9.73
2019-05-13T14:50:54.866Z,8.05
2019-05-13T14:53:24.887Z,5.10
2019-05-13T14:55:54.967Z,5.37
2019-05-13T14:58:24.968Z,5.03
2019-05-13T15:01:11.467Z,7.00
2019-05-13T15:03:27.034Z,8.38
2019-05-13T15:05:57.045Z,6.72
2019-05-13T15:08:27.125Z,10.08
2019-05-13T15:10:57.170Z,9.95
2019-05-13T15:13:27.170Z,16.42
2019-05-13T15:15:57.286Z,6.65
2019-05-13T15:18:27.316Z,6.05
2019-05-13T15:20:57.733Z,9.48
2019-05-13T15:23:28.249Z,9.53
2019-05-13T15:25:58.771Z,5.50
2019-05-13T15:28:36.518Z,11.70
2019-05-13T15:31:07.003Z,11.38
2019-05-13T15:33:38.348Z,9.98
2019-05-13T15:36:08.672Z,11.93
2019-05-13T15:38:41.239Z,14.30
2019-05-13T15:41:15.206Z,19.37
2019-05-13T15:43:43.122Z,14.80
2019-05-13T15:46:14.061Z,14.98
2019-05-13T15:48:44.589Z,16.33
2019-05-13T15:51:14.913Z,20.70
2019-05-13T15:53:45.444Z,15.93
2019-05-13T15:56:23.058Z,8.15
2019-05-13T15:58:54.284Z,6.40
2019-05-13T16:01:25.019Z,12.67
2019-05-13T16:03:55.754Z,13.00
2019-05-13T16:06:26.058Z,12.50
2019-05-13T16:08:56.603Z,11.63
2019-05-13T16:11:27.548Z,18.37
2019-05-13T16:13:58.069Z,17.00
2019-05-13T16:16:28.798Z,12.10
2019-05-13T16:18:59.326Z,12.97
2019-05-13T16:21:32.000Z,18.33
2019-05-13T16:24:02.575Z,19.10
2019-05-13T16:26:33.369Z,20.90
2019-05-13T16:29:04.103Z,13.20
2019-05-13T16:31:35.250Z,11.15
2019-05-13T16:34:05.993Z,15.10
2019-05-13T16:36:36.510Z,13.10
2019-05-13T16:39:07.446Z,14.43
2019-05-13T16:41:42.301Z,20.10
2019-05-13T16:44:12.139Z,21.70
2019-05-13T16:46:42.783Z,24.47
2019-05-13T16:49:13.660Z,26.43
2019-05-13T16:51:44.114Z,20.15
2019-05-13T16:54:14.718Z,15.93
2019-05-13T16:56:45.246Z,13.03
2019-05-13T16:59:15.778Z,12.37
2019-05-13T17:01:46.305Z,13.67
2019-05-13T17:04:17.033Z,24.80
2019-05-13T17:06:47.048Z,16.73
2019-05-13T17:09:17.167Z,15.80
2019-05-13T17:11:47.215Z,20.65
2019-05-13T17:14:17.279Z,21.73
2019-05-13T17:16:47.426Z,20.90
2019-05-13T17:19:18.977Z,99.30
2019-05-13T17:21:51.956Z,29.50
2019-05-13T17:24:22.612Z,22.83
2019-05-13T17:26:52.713Z,21.27
2019-05-13T17:29:22.782Z,51.27
2019-05-13T17:31:52.775Z,28.33
2019-05-13T17:34:22.858Z,18.03
2019-05-13T17:36:52.848Z,18.13
2019-05-13T17:39:22.914Z,18.00
2019-05-13T17:41:52.914Z,15.77
2019-05-13T17:44:22.999Z,20.67
2019-05-13T17:46:54.464Z,17.73
2019-05-13T17:49:24.496Z,15.53
2019-05-13T17:51:54.550Z,17.70
2019-05-13T17:54:24.572Z,14.27
2019-05-13T17:56:54.627Z,11.03
2019-05-13T17:59:24.710Z,14.63
2019-05-13T18:01:54.785Z,14.63
2019-05-13T18:04:24.780Z,10.90
2019-05-13T18:06:54.859Z,16.87
2019-05-13T18:09:25.284Z,21.10
2019-05-13T18:11:55.280Z,19.63
2019-05-13T18:14:26.301Z,21.37
2019-05-13T18:16:56.440Z,16.57
2019-05-13T18:19:26.465Z,19.10
2019-05-13T18:21:56.493Z,36.00
2019-05-13T18:24:26.551Z,32.67
2019-05-13T18:26:56.604Z,34.67
2019-05-13T18:29:26.649Z,25.43
2019-05-13T18:32:01.965Z,27.77
2019-05-13T18:34:32.120Z,17.73
2019-05-13T18:37:02.655Z,16.23
2019-05-13T18:39:32.817Z,21.10
2019-05-13T18:42:02.883Z,21.50
2019-05-13T18:44:32.924Z,26.77
2019-05-13T18:47:03.078Z,18.37
2019-05-13T18:49:34.728Z,19.27
2019-05-13T18:52:04.827Z,19.93
2019-05-13T18:54:35.516Z,20.20
2019-05-13T18:57:05.689Z,18.93
2019-05-13T18:59:35.723Z,18.17
2019-05-13T19:02:05.832Z,16.63
2019-05-13T19:04:35.835Z,19.57
2019-05-13T19:07:07.845Z,19.77
2019-05-13T19:09:38.431Z,22.90
2019-05-13T19:12:11.436Z,23.70
2019-05-13T19:14:41.240Z,19.40
2019-05-13T19:17:12.523Z,20.60
2019-05-13T19:19:43.436Z,20.13
2019-05-13T19:22:14.059Z,20.13
2019-05-13T19:24:44.591Z,17.80
2019-05-13T19:27:15.111Z,20.57
2019-05-13T19:29:45.644Z,19.37
2019-05-13T19:32:16.583Z,23.77
2019-05-13T19:34:47.106Z,23.77
2019-05-13T19:37:18.887Z,17.87
2019-05-13T19:39:48.936Z,20.57
2019-05-13T19:42:19.307Z,18.23
2019-05-13T19:44:51.211Z,16.10
2019-05-13T19:47:21.797Z,18.43
2019-05-13T19:49:52.448Z,17.27
2019-05-13T19:52:22.865Z,20.53
2019-05-13T19:54:54.619Z,23.07
2019-05-13T19:57:25.144Z,16.73
2019-05-13T19:59:55.266Z,16.03
2019-05-13T20:02:26.197Z,18.73
2019-05-13T20:04:56.725Z,21.00
2019-05-13T20:07:27.259Z,18.30
2019-05-13T20:09:57.784Z,17.83
2019-05-13T20:12:31.260Z,18.50
2019-05-13T20:15:02.326Z,16.83
2019-05-13T20:17:32.651Z,18.90
2019-05-13T20:20:02.970Z,19.57
2019-05-13T20:22:33.502Z,16.40
2019-05-13T20:25:04.019Z,19.07
2019-05-13T20:27:34.760Z,14.63
2019-05-13T20:30:06.929Z,21.50
2019-05-13T20:32:37.254Z,19.07
2019-05-13T20:35:08.088Z,21.00
2019-05-13T20:37:38.512Z,18.57
2019-05-13T20:40:11.408Z,16.73
2019-05-13T20:42:41.544Z,15.33
2019-05-13T20:45:12.969Z,15.90
2019-05-13T20:47:43.498Z,12.93
2019-05-13T20:50:14.026Z,16.83
2019-05-13T20:52:44.350Z,15.40
2019-05-13T20:55:14.779Z,13.63
2019-05-13T20:57:44.808Z,14.13
2019-05-13T21:00:14.950Z,12.33
2019-05-13T21:02:45.017Z,14.57
2019-05-13T21:05:15.125Z,13.27
2019-05-13T21:07:45.115Z,11.60
2019-05-13T21:10:15.128Z,12.70
2019-05-13T21:12:45.139Z,15.30
2019-05-13T21:15:15.206Z,10.67
2019-05-13T21:17:45.249Z,11.90
2019-05-13T21:20:22.168Z,11.17
2019-05-13T21:22:47.104Z,10.57
2019-05-13T21:25:17.308Z,10.50
2019-05-13T21:27:47.330Z,11.63
2019-05-13T21:30:17.366Z,15.47
2019-05-13T21:32:47.385Z,11.63
2019-05-13T21:35:17.598Z,12.80
2019-05-13T21:37:48.133Z,11.33
2019-05-13T21:40:21.553Z,10.87
2019-05-13T21:42:52.709Z,15.07
2019-05-13T21:45:22.988Z,14.53
2019-05-13T21:47:53.527Z,12.23
2019-05-13T21:50:33.617Z,13.57
2019-05-13T21:52:56.007Z,13.80
2019-05-13T21:55:26.744Z,17.77
2019-05-13T21:57:57.269Z,13.87
2019-05-13T22:00:29.439Z,15.03
2019-05-13T22:02:59.554Z,17.07
2019-05-13T22:05:31.398Z,17.77
2019-05-13T22:08:02.045Z,20.73
2019-05-13T22:10:32.573Z,22.03
2019-05-13T22:13:03.107Z,19.17
2019-05-13T22:15:33.630Z,25.47
2019-05-13T22:18:04.159Z,20.70
2019-05-13T22:20:49.410Z,19.13
2019-05-13T22:23:06.861Z,21.10
2019-05-13T22:25:37.383Z,20.77
2019-05-13T22:28:07.697Z,19.97
2019-05-13T22:30:38.236Z,18.20
2019-05-13T22:33:08.456Z,15.80
2019-05-13T22:35:41.404Z,18.43
2019-05-13T22:38:12.267Z,19.07
2019-05-13T22:43:32.413Z,19.80
2019-05-13T22:46:02.921Z,17.60
2019-05-13T22:48:33.234Z,15.63
2019-05-13T22:51:03.968Z,21.90
2019-05-13T22:53:34.602Z,19.93
2019-05-13T22:56:05.234Z,19.03
2019-05-13T22:58:35.403Z,19.97
2019-05-13T23:01:05.396Z,21.90
2019-05-13T23:03:35.486Z,21.90
2019-05-13T23:06:05.500Z,23.13
2019-05-13T23:08:35.584Z,22.10
2019-05-13T23:11:05.583Z,24.40
2019-05-13T23:13:35.659Z,19.73
2019-05-13T23:16:05.660Z,21.93
2019-05-13T23:18:35.700Z,18.43
2019-05-13T23:21:05.694Z,19.67
2019-05-13T23:23:35.775Z,23.43
2019-05-13T23:26:05.799Z,17.67
2019-05-13T23:28:35.889Z,20.50
2019-05-13T23:31:06.288Z,16.17
2019-05-13T23:33:36.815Z,16.53
2019-05-13T23:36:07.345Z,17.43
2019-05-13T23:38:37.873Z,16.40
2019-05-13T23:41:08.400Z,18.80
2019-05-13T23:43:38.923Z,19.10
2019-05-13T23:46:09.034Z,15.53
2019-05-13T23:48:41.313Z,16.00
2019-05-13T23:51:12.927Z,17.47
2019-05-13T23:53:43.710Z,19.30
2019-05-13T23:56:14.024Z,16.83
2019-05-13T23:58:44.567Z,17.20
